Time;durP1;ratioP1;P1;durP2;ratioP2;P2;SDS_P1;SDS_P2;PMS_P1;PMS_P2;Temp;Humidity;BMP_temperature;BMP_pressure;BME280_temperature;BME280_humidity;BME280_pressure;Samples;Min_cycle;Max_cycle;Signal;HPM_P1;HPM_P2
2024/01/08 00:02:26;;;;;;;0.40;0.40;;;;;;;-146.30;100.00;58188.94;10497408;28;20459;-88
2024/01/08 00:07:28;;;;;;;0.03;0.03;;;;;;;-146.30;100.00;58188.94;10488095;28;20052;-88
2024/01/08 00:12:30;;;;;;;0.40;0.40;;;;;;;-146.30;100.00;58188.94;10487206;28;20045;-88
2024/01/08 00:17:32;;;;;;;0.40;0.30;;;;;;;-146.30;100.00;58188.94;10489694;28;20052;-89
2024/01/08 00:22:34;;;;;;;0.08;0.08;;;;;;;-146.30;100.00;58188.94;10505564;28;20048;-89
2024/01/08 00:27:36;;;;;;;0.00;0.00;;;;;;;-146.30;100.00;58188.94;10504667;28;20094;-90
2024/01/08 00:32:38;;;;;;;0.30;0.30;;;;;;;-146.30;100.00;58188.94;10504135;28;20049;-88
2024/01/08 00:37:43;;;;;;;0.00;0.00;;;;;;;-146.30;100.00;58188.94;10487431;28;20051;-88
2024/01/08 00:42:45;;;;;;;0.00;0.00;;;;;;;-146.30;100.00;58188.94;10503810;28;20048;-89
2024/01/08 00:47:46;;;;;;;0.10;0.10;;;;;;;-146.30;100.00;58188.94;10455682;28;20049;-89
2024/01/08 00:52:48;;;;;;;0.13;0.10;;;;;;;-146.30;100.00;58188.94;10485565;28;20049;-88
2024/01/08 00:57:50;;;;;;;0.17;0.17;;;;;;;-146.30;100.00;58188.94;10473620;28;20097;-87
2024/01/08 01:02:52;;;;;;;0.52;0.52;;;;;;;-146.30;100.00;58188.94;10492593;28;20044;-87
2024/01/08 01:07:54;;;;;;;0.35;0.35;;;;;;;-146.30;100.00;58188.94;10485173;28;20046;-90
2024/01/08 01:12:56;;;;;;;3.72;1.75;;;;;;;-146.30;100.00;58188.94;10472099;28;20044;-88
2024/01/08 01:18:00;;;;;;;0.00;0.00;;;;;;;-146.30;100.00;58188.94;10500219;28;20045;-89
2024/01/08 01:23:04;;;;;;;0.15;0.15;;;;;;;-146.30;100.00;58188.94;10500901;28;20090;-89
2024/01/08 01:28:07;;;;;;;0.22;0.22;;;;;;;-146.30;100.00;58188.94;10483271;28;20464;-88
2024/01/08 01:33:09;;;;;;;0.43;0.43;;;;;;;-146.30;100.00;58188.94;10499482;28;20106;-89
2024/01/08 01:38:11;;;;;;;0.10;0.10;;;;;;;-146.30;100.00;58188.94;10482603;28;20037;-88
2024/01/08 01:43:31;;;;;;;1.10;0.50;;;;;;;-146.30;100.00;58188.94;10501506;28;20483;-88
2024/01/08 01:48:33;;;;;;;0.30;0.30;;;;;;;-146.30;100.00;58188.94;10500606;28;20128;-88
2024/01/08 01:53:36;;;;;;;0.63;0.20;;;;;;;-146.30;100.00;58188.94;10473629;28;20135;-88
2024/01/08 01:58:38;;;;;;;0.65;0.65;;;;;;;-146.30;100.00;58188.94;10474435;28;20040;-88
2024/01/08 02:03:40;;;;;;;0.00;0.00;;;;;;;-146.30;100.00;58188.94;10465475;28;20052;-87
2024/01/08 02:08:44;;;;;;;0.08;0.08;;;;;;;-146.30;100.00;58188.94;10485060;28;20044;-87
2024/01/08 02:13:46;;;;;;;0.20;0.20;;;;;;;-146.30;100.00;58188.94;10489607;28;20143;-88
2024/01/08 02:18:48;;;;;;;1.08;0.55;;;;;;;-146.30;100.00;58188.94;10488976;28;20076;-88
2024/01/08 02:23:50;;;;;;;1.77;0.70;;;;;;;-146.30;100.00;58188.94;10489863;28;20048;-87
2024/01/08 02:28:52;;;;;;;0.10;0.10;;;;;;;-146.30;100.00;58188.94;10471770;28;20468;-88
2024/01/08 02:33:54;;;;;;;0.63;0.63;;;;;;;-146.30;100.00;58188.94;10487982;28;20053;-88
2024/01/08 02:38:56;;;;;;;0.10;0.10;;;;;;;-146.30;100.00;58188.94;10476213;28;20049;-88
2024/01/08 02:43:58;;;;;;;0.45;0.45;;;;;;;-146.30;100.00;58188.94;10508114;28;20071;-88
2024/01/08 02:49:00;;;;;;;0.80;0.45;;;;;;;-146.30;100.00;58188.94;10480489;28;20094;-88
2024/01/08 02:54:03;;;;;;;0.32;0.32;;;;;;;-146.30;100.00;58188.94;10475702;28;20450;-88
2024/01/08 02:59:06;;;;;;;0.30;0.30;;;;;;;-146.30;100.00;58188.94;10503308;28;20048;-88
2024/01/08 03:04:08;;;;;;;0.30;0.30;;;;;;;-146.30;100.00;58188.94;10503647;28;20453;-87
2024/01/08 03:09:10;;;;;;;0.00;0.00;;;;;;;-146.30;100.00;58188.94;10487557;28;20037;-88
2024/01/08 03:14:12;;;;;;;0.20;0.20;;;;;;;-146.30;100.00;58188.94;10503923;28;20048;-88
2024/01/08 03:19:14;;;;;;;0.05;0.05;;;;;;;-146.30;100.00;58188.94;10503187;28;20040;-88
2024/01/08 03:24:16;;;;;;;0.28;0.28;;;;;;;-146.30;100.00;58188.94;10489678;28;20045;-88
2024/01/08 03:29:17;;;;;;;0.03;0.03;;;;;;;-146.30;100.00;58188.94;10504886;28;20098;-88
2024/01/08 03:34:19;;;;;;;0.85;0.63;;;;;;;-146.30;100.00;58188.94;10509637;28;20076;-88
2024/01/08 03:39:21;;;;;;;0.10;0.10;;;;;;;-146.30;100.00;58188.94;10486505;28;20048;-89
2024/01/08 03:44:23;;;;;;;0.35;0.35;;;;;;;-146.30;100.00;58188.94;10487335;28;20075;-89
2024/01/08 03:49:26;;;;;;;0.88;0.35;;;;;;;-146.30;100.00;58188.94;10487433;28;20063;-89
2024/01/08 03:54:28;;;;;;;0.38;0.22;;;;;;;-146.30;100.00;58188.94;10487869;28;20459;-90
2024/01/08 03:59:30;;;;;;;0.52;0.30;;;;;;;-146.30;100.00;58188.94;10486701;28;20040;-88
2024/01/08 04:04:32;;;;;;;0.10;0.10;;;;;;;-146.30;100.00;58188.94;10504403;28;20470;-89
2024/01/08 04:09:33;;;;;;;0.22;0.20;;;;;;;-146.30;100.00;58188.94;10485310;28;20098;-89
2024/01/08 04:14:35;;;;;;;7.80;0.70;;;;;;;-146.30;100.00;58188.94;10468747;28;20054;-87
2024/01/08 04:19:39;;;;;;;0.55;0.20;;;;;;;-146.30;100.00;58188.94;10502315;28;20140;-88
2024/01/08 04:24:40;;;;;;;0.32;0.20;;;;;;;-146.30;100.00;58188.94;10520384;28;20047;-88
2024/01/08 04:29:42;;;;;;;0.20;0.20;;;;;;;-146.30;100.00;58188.94;10504662;28;20442;-89
2024/01/08 04:34:44;;;;;;;1.02;0.80;;;;;;;-146.30;100.00;58188.94;10485004;28;20048;-88
2024/01/08 04:39:46;;;;;;;0.43;0.43;;;;;;;-146.30;100.00;58188.94;10486648;28;20090;-88
2024/01/08 04:44:48;;;;;;;2.13;1.92;;;;;;;-146.30;100.00;58188.94;10504204;28;20056;-89
2024/01/08 04:49:50;;;;;;;0.00;0.00;;;;;;;-146.30;100.00;58188.94;10503773;28;20480;-89
2024/01/08 04:54:52;;;;;;;1.45;0.80;;;;;;;-146.30;100.00;58188.94;10488202;28;20547;-89
2024/01/08 04:59:54;;;;;;;0.55;0.40;;;;;;;-146.30;100.00;58188.94;10465193;28;20403;-88
2024/01/08 05:04:56;;;;;;;0.00;0.00;;;;;;;-146.30;100.00;58188.94;10472596;28;20048;-89
2024/01/08 05:09:58;;;;;;;0.98;0.73;;;;;;;-146.30;100.00;58188.94;10487217;28;20040;-87
2024/01/08 05:15:01;;;;;;;0.82;0.82;;;;;;;-146.30;100.00;58188.94;10486013;28;20048;-89
2024/01/08 05:20:04;;;;;;;0.25;0.25;;;;;;;-146.30;100.00;58188.94;10477076;28;20040;-88
2024/01/08 05:25:09;;;;;;;0.22;0.22;;;;;;;-146.30;100.00;58188.94;10490090;28;20051;-88
2024/01/08 05:30:11;;;;;;;0.30;0.30;;;;;;;-146.30;100.00;58188.94;10503144;28;20041;-88
2024/01/08 05:35:13;;;;;;;0.52;0.52;;;;;;;-146.30;100.00;58188.94;10503037;28;20055;-89
2024/01/08 05:40:15;;;;;;;0.10;0.10;;;;;;;-146.30;100.00;58188.94;10501879;28;20102;-89
2024/01/08 05:45:17;;;;;;;0.10;0.10;;;;;;;-146.30;100.00;58188.94;10491306;28;20063;-88
2024/01/08 05:50:20;;;;;;;0.03;0.03;;;;;;;-146.30;100.00;58188.94;10494092;28;20090;-88
2024/01/08 05:55:23;;;;;;;0.10;0.10;;;;;;;-146.30;100.00;58188.94;10493198;28;20111;-89
2024/01/08 06:00:25;;;;;;;0.00;0.00;;;;;;;-146.30;100.00;58188.94;10494224;28;20075;-88
2024/01/08 06:05:27;;;;;;;0.10;0.10;;;;;;;-146.30;100.00;58188.94;10476378;28;20048;-89
2024/01/08 06:10:30;;;;;;;0.00;0.00;;;;;;;-146.30;100.00;58188.94;10496309;28;20044;-89
2024/01/08 06:15:33;;;;;;;0.10;0.10;;;;;;;-146.30;100.00;58188.94;10511306;28;20048;-88
2024/01/08 06:20:35;;;;;;;0.20;0.20;;;;;;;-146.30;100.00;58188.94;10494875;28;20051;-88
2024/01/08 06:25:37;;;;;;;0.73;0.73;;;;;;;-146.30;100.00;58188.94;10491831;28;20419;-87
2024/01/08 06:30:39;;;;;;;1.00;0.82;;;;;;;-146.30;100.00;58188.94;10507936;28;20079;-88
2024/01/08 06:35:41;;;;;;;0.00;0.00;;;;;;;-146.30;100.00;58188.94;10490464;28;20051;-88
2024/01/08 06:40:43;;;;;;;0.10;0.10;;;;;;;-146.30;100.00;58188.94;10474959;28;20118;-88
2024/01/08 06:45:45;;;;;;;0.38;0.38;;;;;;;-146.30;100.00;58188.94;10490520;28;20052;-88
2024/01/08 06:50:47;;;;;;;0.10;0.10;;;;;;;-146.30;100.00;58188.94;10490286;28;20545;-88
2024/01/08 06:55:50;;;;;;;0.30;0.30;;;;;;;-146.30;100.00;58188.94;10489554;28;20041;-88
2024/01/08 07:00:51;;;;;;;0.00;0.00;;;;;;;-146.30;100.00;58188.94;10476233;28;20048;-88
2024/01/08 07:05:53;;;;;;;0.63;0.63;;;;;;;-146.30;100.00;58188.94;10487695;28;20044;-88
2024/01/08 07:10:55;;;;;;;0.30;0.30;;;;;;;-146.30;100.00;58188.94;10472167;28;20127;-90
2024/01/08 07:15:57;;;;;;;0.20;0.20;;;;;;;-146.30;100.00;58188.94;10486450;28;20062;-87
2024/01/08 07:20:59;;;;;;;0.00;0.00;;;;;;;-146.30;100.00;58188.94;10487200;28;20053;-88
2024/01/08 07:26:01;;;;;;;0.22;0.22;;;;;;;-146.30;100.00;58188.94;10486603;28;20131;-87
2024/01/08 07:31:05;;;;;;;0.75;0.63;;;;;;;-146.30;100.00;58188.94;10487096;28;20049;-87
2024/01/08 07:36:08;;;;;;;1.15;0.63;;;;;;;-146.30;100.00;58188.94;10485958;28;20048;-86
2024/01/08 07:41:12;;;;;;;0.47;0.43;;;;;;;-146.30;100.00;58188.94;10470363;28;20102;-85
2024/01/08 07:46:14;;;;;;;2.85;2.15;;;;;;;-146.30;100.00;58188.94;10485734;28;20053;-86
2024/01/08 07:51:22;;;;;;;0.00;0.00;;;;;;;-146.30;100.00;58188.94;10470031;28;20040;-87
2024/01/08 07:56:25;;;;;;;0.20;0.20;;;;;;;-146.30;100.00;58188.94;10469663;28;20496;-87
2024/01/08 08:01:27;;;;;;;0.03;0.03;;;;;;;-146.30;100.00;58188.94;10485747;28;20056;-88
2024/01/08 08:06:30;;;;;;;0.00;0.00;;;;;;;-146.30;100.00;58188.94;10485960;28;20497;-86
2024/01/08 08:11:33;;;;;;;0.22;0.22;;;;;;;-146.30;100.00;58188.94;10486812;28;20040;-87
2024/01/08 08:16:35;;;;;;;0.00;0.00;;;;;;;-146.30;100.00;58188.94;10485354;28;20075;-86
2024/01/08 08:21:40;;;;;;;0.08;0.08;;;;;;;-146.30;100.00;58188.94;10485130;28;20044;-88
2024/01/08 08:26:41;;;;;;;0.75;0.75;;;;;;;-146.30;100.00;58188.94;10502341;28;20047;-88
2024/01/08 08:31:43;;;;;;;0.00;0.00;;;;;;;-146.30;100.00;58188.94;10484242;28;20089;-87
2024/01/08 08:36:45;;;;;;;0.75;0.35;;;;;;;-146.30;100.00;58188.94;10483497;28;20249;-87
2024/01/08 08:41:47;;;;;;;0.00;0.00;;;;;;;-146.30;100.00;58188.94;10501466;28;20052;-87
2024/01/08 08:46:49;;;;;;;0.08;0.08;;;;;;;-146.30;100.00;58188.94;10486642;28;20061;-86
2024/01/08 08:51:51;;;;;;;0.22;0.20;;;;;;;-146.30;100.00;58188.94;10485497;28;20381;-88
2024/01/08 08:56:53;;;;;;;1.65;0.52;;;;;;;-146.30;100.00;58188.94;10490608;28;20056;-86
2024/01/08 09:01:55;;;;;;;0.25;0.22;;;;;;;-146.30;100.00;58188.94;10485016;28;20106;-86
2024/01/08 09:06:57;;;;;;;0.13;0.13;;;;;;;-146.30;100.00;58188.94;10480246;28;20423;-86
2024/01/08 09:11:59;;;;;;;0.00;0.00;;;;;;;-146.30;100.00;58188.94;10483960;28;20040;-87
2024/01/08 09:17:02;;;;;;;0.30;0.30;;;;;;;-146.30;100.00;58188.94;10467189;28;20467;-86
2024/01/08 09:22:04;;;;;;;0.00;0.00;;;;;;;-146.30;100.00;58188.94;10492960;28;20045;-86
2024/01/08 09:27:06;;;;;;;0.13;0.13;;;;;;;-146.30;100.00;58188.94;10495746;28;20102;-87
2024/01/08 09:32:08;;;;;;;0.22;0.15;;;;;;;-146.30;100.00;58188.94;10510614;28;20059;-87
2024/01/08 09:37:10;;;;;;;0.10;0.10;;;;;;;-146.30;100.00;58188.94;10510406;28;20135;-87
2024/01/08 09:42:13;;;;;;;0.25;0.25;;;;;;;-146.30;100.00;58188.94;10494884;28;20480;-86
2024/01/08 09:47:16;;;;;;;0.20;0.20;;;;;;;-146.30;100.00;58188.94;10496012;28;20048;-86
2024/01/08 09:52:18;;;;;;;1.77;1.60;;;;;;;-146.30;100.00;58188.94;10513658;28;20048;-85
2024/01/08 09:57:20;;;;;;;0.08;0.08;;;;;;;-146.30;100.00;58188.94;10494458;28;20074;-86
2024/01/08 10:02:23;;;;;;;1.80;0.40;;;;;;;-146.30;100.00;58188.94;10492408;28;20064;-87
2024/01/08 10:07:26;;;;;;;0.10;0.10;;;;;;;-146.30;100.00;58188.94;10506376;28;20509;-86
2024/01/08 10:12:29;;;;;;;1.20;0.95;;;;;;;-146.30;100.00;58188.94;10488564;28;20503;-86
2024/01/08 10:17:31;;;;;;;0.40;0.40;;;;;;;-146.30;100.00;58188.94;10471103;28;20376;-85
2024/01/08 10:22:33;;;;;;;0.00;0.00;;;;;;;-146.30;100.00;58188.94;10531055;28;20126;-86
2024/01/08 10:27:35;;;;;;;0.17;0.17;;;;;;;-146.30;100.00;58188.94;10451608;28;20102;-85
2024/01/08 10:32:37;;;;;;;0.00;0.00;;;;;;;-146.30;100.00;58188.94;10461089;28;20101;-85
2024/01/08 10:37:40;;;;;;;0.47;0.47;;;;;;;-146.30;100.00;58188.94;10479581;28;20135;-86
2024/01/08 10:42:44;;;;;;;0.10;0.10;;;;;;;-146.30;100.00;58188.94;10485659;28;20118;-86
2024/01/08 10:47:56;;;;;;;0.43;0.32;;;;;;;-146.30;100.00;58188.94;10518356;28;20471;-85
2024/01/08 10:52:58;;;;;;;0.00;0.00;;;;;;;-146.30;100.00;58188.94;10464199;28;20052;-87
2024/01/08 10:58:07;;;;;;;0.10;0.10;;;;;;;-146.30;100.00;58188.94;10486238;28;20071;-85
2024/01/08 11:03:10;;;;;;;0.20;0.20;;;;;;;-146.30;100.00;58188.94;10486350;28;20076;-85
2024/01/08 11:08:13;;;;;;;1.75;1.00;;;;;;;-146.30;100.00;58188.94;10500827;28;20146;-84
2024/01/08 11:13:16;;;;;;;0.00;0.00;;;;;;;-146.30;100.00;58188.94;10496782;28;20406;-85
2024/01/08 11:18:25;;;;;;;0.20;0.20;;;;;;;-146.30;100.00;58188.94;10482944;28;20482;-84
2024/01/08 11:23:42;;;;;;;0.20;0.20;;;;;;;-146.30;100.00;58188.94;10506528;28;20040;-85
2024/01/08 11:29:02;;;;;;;0.20;0.20;;;;;;;-146.30;100.00;58188.94;10482930;28;20050;-85
2024/01/08 11:34:23;;;;;;;0.00;0.00;;;;;;;-146.30;100.00;58188.94;10515935;28;20045;-86
2024/01/08 11:39:27;;;;;;;0.00;0.00;;;;;;;-146.30;100.00;58188.94;10483180;28;20386;-85
2024/01/08 11:44:29;;;;;;;0.00;0.00;;;;;;;-146.30;100.00;58188.94;10528176;28;20095;-85
2024/01/08 11:49:31;;;;;;;0.10;0.10;;;;;;;-146.30;100.00;58188.94;10498379;28;20048;-86
2024/01/08 11:54:33;;;;;;;0.10;0.10;;;;;;;-146.30;100.00;58188.94;10482606;28;20044;-84
2024/01/08 11:59:36;;;;;;;0.00;0.00;;;;;;;-146.30;100.00;58188.94;10479526;28;20529;-84
2024/01/08 12:04:38;;;;;;;0.10;0.10;;;;;;;-146.30;100.00;58188.94;10496312;28;20140;-84
2024/01/08 12:09:40;;;;;;;0.10;0.10;;;;;;;-146.30;100.00;58188.94;10488128;28;20105;-85
2024/01/08 12:14:42;;;;;;;0.00;0.00;;;;;;;-146.30;100.00;58188.94;10481290;28;20048;-86
2024/01/08 12:19:47;;;;;;;0.08;0.08;;;;;;;-146.30;100.00;58188.94;10484573;28;20072;-85
2024/01/08 12:24:55;;;;;;;0.10;0.10;;;;;;;-146.30;100.00;58188.94;10482754;28;20056;-85
2024/01/08 12:29:58;;;;;;;0.52;0.25;;;;;;;-146.30;100.00;58188.94;10486724;28;20036;-83
2024/01/08 12:35:03;;;;;;;0.30;0.25;;;;;;;-146.30;100.00;58188.94;10470295;28;20090;-84
2024/01/08 12:40:08;;;;;;;0.13;0.13;;;;;;;-146.30;100.00;58188.94;10508173;28;20071;-85
2024/01/08 12:45:10;;;;;;;0.77;0.57;;;;;;;-146.30;100.00;58188.94;10514828;28;20135;-86
2024/01/08 12:50:12;;;;;;;0.90;0.52;;;;;;;-146.30;100.00;58188.94;10467636;28;20044;-85
2024/01/08 12:55:14;;;;;;;0.00;0.00;;;;;;;-146.30;100.00;58188.94;10510116;28;20101;-84
2024/01/08 13:00:17;;;;;;;0.00;0.00;;;;;;;-146.30;100.00;58188.94;10498783;28;20036;-84
2024/01/08 13:05:19;;;;;;;0.40;0.40;;;;;;;-146.30;100.00;58188.94;10493566;28;20064;-84
2024/01/08 13:10:21;;;;;;;0.13;0.13;;;;;;;-146.30;100.00;58188.94;10489316;28;20064;-85
2024/01/08 13:15:23;;;;;;;0.47;0.47;;;;;;;-146.30;100.00;58188.94;10465172;28;20040;-84
2024/01/08 13:20:25;;;;;;;0.35;0.35;;;;;;;-146.30;100.00;58188.94;10516902;28;20036;-85
2024/01/08 13:25:28;;;;;;;0.10;0.10;;;;;;;-146.30;100.00;58188.94;10472735;28;20479;-85
2024/01/08 13:30:31;;;;;;;0.55;0.55;;;;;;;-146.30;100.00;58188.94;10494533;28;20053;-84
2024/01/08 13:35:33;;;;;;;0.00;0.00;;;;;;;-146.30;100.00;58188.94;10506834;28;20101;-84
2024/01/08 13:40:35;;;;;;;0.00;0.00;;;;;;;-146.30;100.00;58188.94;10478673;28;20173;-86
2024/01/08 13:45:37;;;;;;;0.65;0.63;;;;;;;-146.30;100.00;58188.94;10481037;28;20053;-84
2024/01/08 13:50:38;;;;;;;0.20;0.20;;;;;;;-146.30;100.00;58188.94;10496400;28;20060;-84
2024/01/08 13:55:41;;;;;;;0.00;0.00;;;;;;;-146.30;100.00;58188.94;10495320;28;20058;-84
2024/01/08 14:00:43;;;;;;;0.10;0.10;;;;;;;-146.30;100.00;58188.94;10467816;28;20040;-85
2024/01/08 14:05:45;;;;;;;0.00;0.00;;;;;;;-146.30;100.00;58188.94;10481741;28;20048;-84
2024/01/08 14:10:47;;;;;;;0.10;0.10;;;;;;;-146.30;100.00;58188.94;10485329;28;20048;-85
2024/01/08 14:15:49;;;;;;;0.00;0.00;;;;;;;-146.30;100.00;58188.94;10485346;28;20487;-84
2024/01/08 14:20:51;;;;;;;0.00;0.00;;;;;;;-146.30;100.00;58188.94;10453960;28;20075;-84
2024/01/08 14:25:53;;;;;;;0.00;0.00;;;;;;;-146.30;100.00;58188.94;10502646;28;20048;-83
2024/01/08 14:30:54;;;;;;;1.13;0.52;;;;;;;-146.30;100.00;58188.94;10502091;28;20045;-84
2024/01/08 14:35:57;;;;;;;0.10;0.10;;;;;;;-146.30;100.00;58188.94;10494218;28;20035;-85
2024/01/08 14:40:59;;;;;;;0.68;0.68;;;;;;;-146.30;100.00;58188.94;10527951;28;20487;-86
2024/01/08 14:46:01;;;;;;;0.10;0.10;;;;;;;-146.30;100.00;58188.94;10509916;28;20105;-85
2024/01/08 14:51:04;;;;;;;0.03;0.03;;;;;;;-146.30;100.00;58188.94;10508478;28;20760;-85
2024/01/08 14:56:06;;;;;;;0.00;0.00;;;;;;;-146.30;100.00;58188.94;10502747;28;20082;-85
2024/01/08 15:01:08;;;;;;;0.10;0.10;;;;;;;-146.30;100.00;58188.94;10480233;28;20152;-85
2024/01/08 15:06:10;;;;;;;0.05;0.05;;;;;;;-146.30;100.00;58188.94;10485318;28;20049;-87
2024/01/08 15:11:12;;;;;;;6.70;2.17;;;;;;;-146.30;100.00;58188.94;10501027;28;20047;-84
2024/01/08 15:16:14;;;;;;;2.67;0.80;;;;;;;-146.30;100.00;58188.94;10497615;28;20047;-85
2024/01/08 15:21:17;;;;;;;0.03;0.03;;;;;;;-146.30;100.00;58188.94;10499940;28;20056;-86
2024/01/08 15:26:19;;;;;;;0.10;0.10;;;;;;;-146.30;100.00;58188.94;10500635;28;20044;-85
2024/01/08 15:31:21;;;;;;;0.30;0.30;;;;;;;-146.30;100.00;58188.94;10483155;28;20495;-85
2024/01/08 15:36:23;;;;;;;0.00;0.00;;;;;;;-146.30;100.00;58188.94;10467126;28;20052;-85
2024/01/08 15:41:25;;;;;;;0.00;0.00;;;;;;;-146.30;100.00;58188.94;10482726;28;20528;-85
2024/01/08 15:46:28;;;;;;;0.20;0.20;;;;;;;-146.30;100.00;58188.94;10506962;28;20051;-84
2024/01/08 15:51:30;;;;;;;0.93;0.40;;;;;;;-146.30;100.00;58188.94;10483068;28;20044;-86
2024/01/08 15:56:32;;;;;;;0.05;0.05;;;;;;;-146.30;100.00;58188.94;10481469;28;20045;-85
2024/01/08 16:01:38;;;;;;;0.35;0.35;;;;;;;-146.30;100.00;58188.94;10480365;28;20044;-85
2024/01/08 16:06:40;;;;;;;1.38;0.63;;;;;;;-146.30;100.00;58188.94;10485889;28;20054;-85
2024/01/08 16:11:42;;;;;;;0.10;0.10;;;;;;;-146.30;100.00;58188.94;10480246;28;20048;-85
2024/01/08 16:16:44;;;;;;;0.13;0.13;;;;;;;-146.30;100.00;58188.94;10483571;28;20118;-84
2024/01/08 16:21:45;;;;;;;0.00;0.00;;;;;;;-146.30;100.00;58188.94;10485844;28;20068;-84
2024/01/08 16:26:47;;;;;;;0.10;0.10;;;;;;;-146.30;100.00;58188.94;10494797;28;20048;-85
2024/01/08 16:31:49;;;;;;;4.15;0.73;;;;;;;-146.30;100.00;58188.94;10479201;28;20045;-85
2024/01/08 16:36:51;;;;;;;0.30;0.30;;;;;;;-146.30;100.00;58188.94;10473589;28;20445;-84
2024/01/08 16:41:53;;;;;;;0.20;0.20;;;;;;;-146.30;100.00;58188.94;10495145;28;20051;-84
2024/01/08 16:46:55;;;;;;;0.00;0.00;;;;;;;-146.30;100.00;58188.94;10479137;28;20048;-85
2024/01/08 16:51:56;;;;;;;0.00;0.00;;;;;;;-146.30;100.00;58188.94;10495214;28;20067;-85
2024/01/08 16:56:58;;;;;;;0.52;0.47;;;;;;;-146.30;100.00;58188.94;10496518;28;20072;-84
2024/01/08 17:02:01;;;;;;;0.10;0.10;;;;;;;-146.30;100.00;58188.94;10497784;28;20110;-85
2024/01/08 17:07:03;;;;;;;0.28;0.28;;;;;;;-146.30;100.00;58188.94;10466587;28;20040;-84
2024/01/08 17:12:05;;;;;;;0.35;0.35;;;;;;;-146.30;100.00;58188.94;10469231;28;20082;-85
2024/01/08 17:17:10;;;;;;;0.80;0.55;;;;;;;-146.30;100.00;58188.94;10478714;28;20499;-84
2024/01/08 17:22:13;;;;;;;0.03;0.03;;;;;;;-146.30;100.00;58188.94;10476241;28;20052;-84
2024/01/08 17:27:18;;;;;;;0.00;0.00;;;;;;;-146.30;100.00;58188.94;10510447;28;20052;-85
2024/01/08 17:32:20;;;;;;;0.00;0.00;;;;;;;-146.30;100.00;58188.94;10493675;28;20098;-84
2024/01/08 17:37:23;;;;;;;0.40;0.40;;;;;;;-146.30;100.00;58188.94;10476980;28;20040;-84
2024/01/08 17:42:25;;;;;;;0.10;0.10;;;;;;;-146.30;100.00;58188.94;10518843;28;20039;-84
2024/01/08 17:47:27;;;;;;;0.98;0.38;;;;;;;-146.30;100.00;58188.94;10489337;28;20055;-83
2024/01/08 17:52:31;;;;;;;1.08;0.38;;;;;;;-146.30;100.00;58188.94;10479121;28;20062;-84
2024/01/08 17:57:33;;;;;;;0.10;0.10;;;;;;;-146.30;100.00;58188.94;10493690;28;20044;-83
2024/01/08 18:02:35;;;;;;;0.15;0.15;;;;;;;-146.30;100.00;58188.94;10481978;28;20040;-84
2024/01/08 18:07:37;;;;;;;0.73;0.30;;;;;;;-146.30;100.00;58188.94;10466377;28;20052;-85
2024/01/08 18:12:39;;;;;;;0.10;0.10;;;;;;;-146.30;100.00;58188.94;10489384;28;20044;-85
2024/01/08 18:17:47;;;;;;;0.08;0.08;;;;;;;-146.30;100.00;58188.94;10466803;28;20091;-82
2024/01/08 18:22:50;;;;;;;0.20;0.20;;;;;;;-146.30;100.00;58188.94;10504365;28;20040;-82
2024/01/08 18:27:51;;;;;;;0.00;0.00;;;;;;;-146.30;100.00;58188.94;10488517;28;20075;-83
2024/01/08 18:32:53;;;;;;;0.00;0.00;;;;;;;-146.30;100.00;58188.94;10498788;28;20056;-83
2024/01/08 18:37:55;;;;;;;0.00;0.00;;;;;;;-146.30;100.00;58188.94;10486221;28;20050;-83
2024/01/08 18:42:57;;;;;;;2.75;0.55;;;;;;;-146.30;100.00;58188.94;10500834;28;20132;-83
2024/01/08 18:47:59;;;;;;;0.57;0.22;;;;;;;-146.30;100.00;58188.94;10483983;28;20076;-83
2024/01/08 18:53:01;;;;;;;0.10;0.10;;;;;;;-146.30;100.00;58188.94;10468789;28;20075;-83
2024/01/08 18:58:04;;;;;;;0.00;0.00;;;;;;;-146.30;100.00;58188.94;10485771;28;20384;-84
2024/01/08 19:03:06;;;;;;;0.25;0.25;;;;;;;-146.30;100.00;58188.94;10470964;28;20060;-84
2024/01/08 19:08:08;;;;;;;0.10;0.10;;;;;;;-146.30;100.00;58188.94;10485470;28;20063;-83
2024/01/08 19:13:09;;;;;;;0.00;0.00;;;;;;;-146.30;100.00;58188.94;10504178;28;20052;-83
2024/01/08 19:18:11;;;;;;;0.00;0.00;;;;;;;-146.30;100.00;58188.94;10489347;28;20052;-83
2024/01/08 19:23:14;;;;;;;0.00;0.00;;;;;;;-146.30;100.00;58188.94;10503695;28;20064;-84
2024/01/08 19:28:16;;;;;;;0.60;0.60;;;;;;;-146.30;100.00;58188.94;10464918;28;20040;-84
2024/01/08 19:33:18;;;;;;;0.00;0.00;;;;;;;-146.30;100.00;58188.94;10470458;28;20044;-84
2024/01/08 19:38:21;;;;;;;0.10;0.10;;;;;;;-146.30;100.00;58188.94;10470973;28;20139;-83
2024/01/08 19:43:24;;;;;;;0.10;0.10;;;;;;;-146.30;100.00;58188.94;10488995;28;20040;-83
2024/01/08 19:48:26;;;;;;;0.00;0.00;;;;;;;-146.30;100.00;58188.94;10467279;28;20142;-83
2024/01/08 19:53:28;;;;;;;0.10;0.10;;;;;;;-146.30;100.00;58188.94;10514184;28;20045;-84
2024/01/08 19:58:30;;;;;;;0.10;0.10;;;;;;;-146.30;100.00;58188.94;10482068;28;20453;-84
2024/01/08 20:03:31;;;;;;;0.10;0.10;;;;;;;-146.30;100.00;58188.94;10494218;28;20064;-84
2024/01/08 20:08:33;;;;;;;0.00;0.00;;;;;;;-146.30;100.00;58188.94;10481182;28;20056;-84
2024/01/08 20:13:36;;;;;;;0.30;0.30;;;;;;;-146.30;100.00;58188.94;10500339;28;20043;-84
2024/01/08 20:18:38;;;;;;;0.10;0.10;;;;;;;-146.30;100.00;58188.94;10484266;28;20083;-83
2024/01/08 20:23:40;;;;;;;0.20;0.20;;;;;;;-146.30;100.00;58188.94;10481697;28;20116;-84
2024/01/08 20:28:44;;;;;;;0.70;0.68;;;;;;;-146.30;100.00;58188.94;10482796;28;20052;-84
2024/01/08 20:33:46;;;;;;;0.25;0.25;;;;;;;-146.30;100.00;58188.94;10481941;28;20045;-84
2024/01/08 20:38:48;;;;;;;0.03;0.03;;;;;;;-146.30;100.00;58188.94;10476259;28;20060;-83
2024/01/08 20:43:50;;;;;;;0.70;0.40;;;;;;;-146.30;100.00;58188.94;10489811;28;20044;-84
2024/01/08 20:48:52;;;;;;;0.00;0.00;;;;;;;-146.30;100.00;58188.94;10480723;28;20048;-84
2024/01/08 20:53:54;;;;;;;0.00;0.00;;;;;;;-146.30;100.00;58188.94;10490810;28;20102;-82
2024/01/08 20:58:56;;;;;;;0.00;0.00;;;;;;;-146.30;100.00;58188.94;10461359;28;20075;-82
2024/01/08 21:03:57;;;;;;;0.15;0.15;;;;;;;-146.30;100.00;58188.94;10468571;28;20060;-84
2024/01/08 21:08:59;;;;;;;0.22;0.22;;;;;;;-146.30;100.00;58188.94;10475218;28;20505;-82
2024/01/08 21:14:01;;;;;;;0.00;0.00;;;;;;;-146.30;100.00;58188.94;10484979;28;20037;-83
2024/01/08 21:19:03;;;;;;;0.45;0.45;;;;;;;-146.30;100.00;58188.94;10477460;28;20125;-83
2024/01/08 21:24:07;;;;;;;0.00;0.00;;;;;;;-146.30;100.00;58188.94;10487476;28;20044;-82
2024/01/08 21:29:08;;;;;;;0.03;0.03;;;;;;;-146.30;100.00;58188.94;10474342;28;20075;-82
2024/01/08 21:34:10;;;;;;;0.00;0.00;;;;;;;-146.30;100.00;58188.94;10436465;28;1105145;-82
2024/01/08 21:39:12;;;;;;;0.00;0.00;;;;;;;-146.30;100.00;58188.94;10470630;28;20048;-82
2024/01/08 21:44:14;;;;;;;0.10;0.10;;;;;;;-146.30;100.00;58188.94;10458629;28;20131;-82
2024/01/08 21:49:16;;;;;;;0.08;0.08;;;;;;;-146.30;100.00;58188.94;10452289;28;20056;-82
2024/01/08 21:54:18;;;;;;;0.47;0.47;;;;;;;-146.30;100.00;58188.94;10479846;28;20055;-82
2024/01/08 21:59:20;;;;;;;2.47;0.98;;;;;;;-146.30;100.00;58188.94;10495221;28;20224;-81
2024/01/08 22:04:22;;;;;;;0.10;0.10;;;;;;;-146.30;100.00;58188.94;10483592;28;20048;-82
2024/01/08 22:09:24;;;;;;;0.10;0.10;;;;;;;-146.30;100.00;58188.94;10463579;28;20277;-82
2024/01/08 22:14:26;;;;;;;0.28;0.25;;;;;;;-146.30;100.00;58188.94;10477784;28;20036;-81
2024/01/08 22:19:28;;;;;;;0.10;0.10;;;;;;;-146.30;100.00;58188.94;10478441;28;20491;-81
2024/01/08 22:24:31;;;;;;;0.00;0.00;;;;;;;-146.30;100.00;58188.94;10480696;28;20182;-82
2024/01/08 22:29:33;;;;;;;0.00;0.00;;;;;;;-146.30;100.00;58188.94;10520351;28;20056;-82
2024/01/08 22:34:35;;;;;;;0.43;0.35;;;;;;;-146.30;100.00;58188.94;10474971;28;20048;-82
2024/01/08 22:39:37;;;;;;;0.10;0.10;;;;;;;-146.30;100.00;58188.94;10485386;28;20072;-82